Ray City, Georgia
Current Conditions -  °F | °C
As of 2:58 PM on Wednesday 26 Nov 2014 (Local Time) from KVAD Reporting Station
Clear Clear  
Wind Chill: 16°   Ceiling: Unl
Heat Index: 16°   Visibility: 10mi
Dew Point: -1°   Wind: 14mph
Humidity: 33%   Direction: 280°W
Pressure: 30.12"   Gusts: NA
Location:  31.07°N, 83.2°W
Report Text: KVAD 261958Z AUTO 28012KT 10SM CLR 16/M01 A3012 RMK AO2 SLP202 T01561008 $
Loading
Personal Weather Stations






























Interactive Weather Map New forecast layout! Learn more

10-Day Weather Forecast

Advertisements
Track Severe Weather on mobile